< < Back
Terminal Aerodrome Forecast


Current Version              Previous Versions:   1  2  3  4  5  6  7  8  9  

Terminal Aerodrome Forecast

021
FTUS42 KFFC 281120
TAFMCN
TAF
KMCN 281120Z 2812/2912 07005KT P6SM SCT008 BKN015
      TEMPO 2812/2814 6SM BR BKN006
     FM281400 09008KT P6SM BKN015
     FM281700 09010KT P6SM BKN035
     FM282200 10006KT P6SM SCT040 BKN250
     FM290100 10004KT P6SM SCT045 BKN250
     FM290800 09003KT P6SM SCT008 BKN020=



Latest METAR

282
SAUS80 KWBC 281700
MTRMCN
METAR KMCN 281653Z 04013KT 10SM BKN029 BKN041 29/21 A3012 RMK AO2 SLP193
T02940211


USA.gov is the U.S. government's official web portal to all federal, state and local government web resources and services.